Time;durP1;ratioP1;P1;durP2;ratioP2;P2;SDS_P1;SDS_P2;PMS_P1;PMS_P2;Temp;Humidity;BMP_temperature;BMP_pressure;BME280_temperature;BME280_humidity;BME280_pressure;Samples;Min_cycle;Max_cycle;Signal;HPM_P1;HPM_P2
2021/12/12 00:00:28;;;;;;;7.33;4.27;;;2.50;99.90;;;;;;5094142;28;20180;-62
2021/12/12 00:02:58;;;;;;;10.65;3.70;;;2.50;99.90;;;;;;5071021;28;20188;-63
2021/12/12 00:05:42;;;;;;;5.93;3.87;;;2.40;99.90;;;;;;5093400;28;20215;-63
2021/12/12 00:08:08;;;;;;;11.07;5.13;;;2.40;99.90;;;;;;5093779;28;20164;-64
2021/12/12 00:10:37;;;;;;;10.25;6.07;;;2.40;99.90;;;;;;5093070;28;20219;-63
2021/12/12 00:13:17;;;;;;;8.70;4.60;;;2.40;99.90;;;;;;5093350;28;20184;-64
2021/12/12 00:15:43;;;;;;;11.07;4.77;;;2.40;99.90;;;;;;5093618;28;20183;-63
2021/12/12 00:18:09;;;;;;;8.27;4.80;;;2.30;99.90;;;;;;5093173;28;20184;-63
2021/12/12 00:20:36;;;;;;;11.97;4.70;;;2.20;99.90;;;;;;5093498;28;20180;-63
2021/12/12 00:23:02;;;;;;;8.77;4.30;;;2.20;99.90;;;;;;5092589;28;20176;-63
2021/12/12 00:25:32;;;;;;;10.60;4.50;;;2.20;99.90;;;;;;5092194;28;20200;-62
2021/12/12 00:27:58;;;;;;;14.37;4.80;;;2.20;99.90;;;;;;5091874;28;20261;-64
2021/12/12 00:30:25;;;;;;;9.23;5.17;;;2.10;99.90;;;;;;5091360;28;20289;-63
2021/12/12 00:32:51;;;;;;;7.23;4.57;;;2.10;99.90;;;;;;5099843;28;20175;-63
2021/12/12 00:35:17;;;;;;;11.93;5.17;;;2.00;99.90;;;;;;5109601;28;20225;-63
2021/12/12 00:37:45;;;;;;;7.43;4.30;;;2.00;99.90;;;;;;5104063;28;20207;-63
2021/12/12 00:40:33;;;;;;;6.90;4.60;;;2.00;99.90;;;;;;5093104;28;20237;-63
2021/12/12 00:43:06;;;;;;;11.00;4.93;;;2.00;99.90;;;;;;5092916;28;20184;-62
2021/12/12 00:45:33;;;;;;;11.10;5.37;;;1.90;99.90;;;;;;5093112;28;20196;-63
2021/12/12 00:47:59;;;;;;;7.37;4.73;;;1.90;99.90;;;;;;5092332;28;20652;-64
2021/12/12 00:50:32;;;;;;;9.20;4.63;;;1.90;99.90;;;;;;5092404;28;20235;-63
2021/12/12 00:53:00;;;;;;;13.13;4.43;;;1.90;99.90;;;;;;5097715;28;20180;-62
2021/12/12 00:55:26;;;;;;;11.07;5.93;;;1.90;99.90;;;;;;5091975;28;20223;-63
2021/12/12 00:57:54;;;;;;;10.33;5.10;;;1.90;99.90;;;;;;5091261;28;20226;-63
2021/12/12 01:00:25;;;;;;;11.47;5.10;;;1.90;99.90;;;;;;5092716;28;20279;-63
2021/12/12 01:02:52;;;;;;;9.90;4.93;;;1.90;99.90;;;;;;5092102;28;20188;-63
2021/12/12 01:05:19;;;;;;;12.73;5.13;;;1.90;99.90;;;;;;5091058;28;20208;-63
2021/12/12 01:07:47;;;;;;;10.17;5.13;;;2.00;99.90;;;;;;5092168;28;20631;-64
2021/12/12 01:10:26;;;;;;;11.10;5.20;;;2.00;99.90;;;;;;5091019;28;20254;-63
2021/12/12 01:12:53;;;;;;;10.37;4.67;;;2.00;99.90;;;;;;5091953;28;20215;-63
2021/12/12 01:15:32;;;;;;;9.80;5.30;;;2.00;99.90;;;;;;5092495;28;20638;-64
2021/12/12 01:18:09;;;;;;;12.13;5.33;;;1.90;99.90;;;;;;5092182;28;20643;-63
2021/12/12 01:20:42;;;;;;;13.30;4.73;;;1.80;99.90;;;;;;5090774;28;20183;-63
2021/12/12 01:23:15;;;;;;;9.83;5.70;;;1.70;99.90;;;;;;5092004;28;20698;-63
2021/12/12 01:25:44;;;;;;;12.73;5.40;;;1.70;99.90;;;;;;5092171;28;20217;-63
2021/12/12 01:28:17;;;;;;;13.77;5.47;;;1.70;99.90;;;;;;5091990;28;20531;-62
2021/12/12 01:30:43;;;;;;;10.37;5.60;;;1.70;99.90;;;;;;5092126;28;20251;-63
2021/12/12 01:33:10;;;;;;;10.90;5.97;;;1.70;99.90;;;;;;5090290;28;20183;-64
2021/12/12 01:35:39;;;;;;;13.43;5.80;;;1.70;99.90;;;;;;5092147;28;20184;-63
2021/12/12 01:40:55;;;;;;;13.80;6.40;;;1.70;99.90;;;;;;5094387;28;20645;-63
2021/12/12 01:43:35;;;;;;;11.63;5.60;;;1.70;99.90;;;;;;5099634;28;20195;-62
2021/12/12 01:46:06;;;;;;;15.10;5.77;;;1.70;99.90;;;;;;5092237;28;20225;-63
2021/12/12 01:48:39;;;;;;;10.50;5.57;;;1.80;99.90;;;;;;5091998;28;20514;-62
2021/12/12 01:51:08;;;;;;;11.87;6.83;;;1.80;99.90;;;;;;5090603;28;20307;-63
2021/12/12 01:53:37;;;;;;;10.27;6.53;;;1.90;99.90;;;;;;5091876;28;20706;-63
2021/12/12 01:56:12;;;;;;;12.07;7.00;;;1.90;99.90;;;;;;5091706;28;20580;-62
2021/12/12 01:58:40;;;;;;;13.97;7.57;;;1.90;99.90;;;;;;5091819;28;20639;-63
2021/12/12 02:01:10;;;;;;;17.43;7.40;;;1.90;99.90;;;;;;5091366;28;20180;-62
2021/12/12 02:03:41;;;;;;;9.70;5.90;;;1.90;99.90;;;;;;5091365;28;20202;-63
2021/12/12 02:06:09;;;;;;;13.50;5.63;;;1.90;99.90;;;;;;5091893;28;20255;-61
2021/12/12 02:08:37;;;;;;;11.60;6.17;;;1.90;99.90;;;;;;5091206;28;20271;-61
2021/12/12 02:11:19;;;;;;;9.23;5.33;;;1.90;99.90;;;;;;5092008;28;20646;-62
2021/12/12 02:13:48;;;;;;;14.40;5.70;;;1.90;99.90;;;;;;5091220;28;20568;-62
2021/12/12 02:16:15;;;;;;;8.30;5.07;;;2.00;99.90;;;;;;5091446;28;20180;-64
2021/12/12 02:18:47;;;;;;;10.77;4.80;;;2.00;99.90;;;;;;5091166;28;20176;-62
2021/12/12 02:21:25;;;;;;;11.27;5.40;;;2.10;99.90;;;;;;5091797;28;20519;-62
2021/12/12 02:24:17;;;;;;;8.83;5.17;;;2.20;99.90;;;;;;5091279;28;20183;-62
2021/12/12 02:37:43;;;;;;;9.97;5.73;;;2.30;99.90;;;;;;5090724;28;20194;-62
2021/12/12 02:40:16;;;;;;;10.77;4.65;;;2.30;99.90;;;;;;5091595;28;20179;-62
2021/12/12 02:42:43;;;;;;;6.22;3.83;;;2.30;99.90;;;;;;5091360;28;20191;-63
2021/12/12 02:45:10;;;;;;;8.67;4.00;;;2.30;99.90;;;;;;5091065;28;20579;-63
2021/12/12 02:47:37;;;;;;;7.13;4.13;;;2.30;99.90;;;;;;5091427;28;20271;-61
2021/12/12 02:50:19;;;;;;;10.90;3.83;;;2.20;99.90;;;;;;5096397;28;20287;-61
2021/12/12 02:53:03;;;;;;;7.53;4.17;;;2.20;99.90;;;;;;5098724;28;20240;-61
2021/12/12 02:55:34;;;;;;;7.60;3.53;;;2.10;99.90;;;;;;5094400;28;20212;-63
2021/12/12 02:58:02;;;;;;;9.00;3.87;;;2.10;99.90;;;;;;5094933;28;20172;-63
2021/12/12 03:00:35;;;;;;;7.95;3.58;;;2.00;99.90;;;;;;5094890;28;20610;-63
2021/12/12 03:03:01;;;;;;;8.80;4.00;;;2.00;99.90;;;;;;5094824;28;20164;-63
2021/12/12 03:05:34;;;;;;;6.87;4.13;;;2.00;99.90;;;;;;5094412;28;20184;-63
2021/12/12 03:08:00;;;;;;;5.23;3.60;;;2.00;99.90;;;;;;5094576;28;20187;-63
2021/12/12 03:10:30;;;;;;;8.70;3.67;;;1.90;99.90;;;;;;5094773;28;20200;-63
2021/12/12 03:12:56;;;;;;;9.57;3.90;;;1.90;99.90;;;;;;5094641;28;20505;-63
2021/12/12 03:15:26;;;;;;;10.40;4.73;;;1.90;99.90;;;;;;5094300;28;20172;-63
2021/12/12 03:17:56;;;;;;;8.33;4.67;;;1.90;99.90;;;;;;5094405;28;20180;-63
2021/12/12 03:20:33;;;;;;;11.17;4.90;;;1.90;99.90;;;;;;5094605;28;20169;-63
2021/12/12 03:23:00;;;;;;;12.23;4.33;;;1.90;99.90;;;;;;5094113;28;20178;-63
2021/12/12 03:25:29;;;;;;;9.27;3.80;;;1.90;99.90;;;;;;5094236;28;20172;-63
2021/12/12 03:27:54;;;;;;;10.00;3.70;;;1.90;99.90;;;;;;5094338;28;20176;-63
2021/12/12 03:30:20;;;;;;;8.20;3.63;;;2.00;99.90;;;;;;5093949;28;20257;-62
2021/12/12 03:32:46;;;;;;;6.90;3.70;;;2.00;99.90;;;;;;5094413;28;20191;-62
2021/12/12 03:35:13;;;;;;;8.50;3.83;;;2.00;99.90;;;;;;5094155;28;20616;-62
2021/12/12 03:37:39;;;;;;;9.70;4.23;;;2.00;99.90;;;;;;5094287;28;20179;-63
2021/12/12 03:40:24;;;;;;;8.23;3.67;;;2.00;99.90;;;;;;5093968;28;20210;-63
2021/12/12 03:42:53;;;;;;;12.70;4.67;;;2.10;99.90;;;;;;5094393;28;20203;-63
2021/12/12 03:45:20;;;;;;;5.63;3.27;;;2.10;99.90;;;;;;5093767;28;20203;-63
2021/12/12 03:47:50;;;;;;;7.83;3.67;;;2.10;99.90;;;;;;5094173;28;20215;-63
2021/12/12 03:50:25;;;;;;;8.63;3.23;;;2.10;99.90;;;;;;5093587;28;20207;-63
2021/12/12 03:52:52;;;;;;;8.37;3.33;;;2.10;99.90;;;;;;5094240;28;20168;-63
2021/12/12 03:55:18;;;;;;;5.83;3.67;;;2.20;99.90;;;;;;5092915;28;20662;-64
2021/12/12 03:57:47;;;;;;;6.50;3.73;;;2.20;99.90;;;;;;5092397;28;20549;-63
2021/12/12 04:00:19;;;;;;;9.80;4.10;;;2.20;99.90;;;;;;5093955;28;20188;-61
2021/12/12 04:02:45;;;;;;;5.17;3.10;;;2.20;99.90;;;;;;5105627;28;20179;-61
2021/12/12 04:05:11;;;;;;;5.67;3.27;;;2.30;99.90;;;;;;5093268;28;20844;-61
2021/12/12 04:07:36;;;;;;;6.30;3.47;;;2.30;99.90;;;;;;5093791;28;20176;-62
2021/12/12 04:10:05;;;;;;;6.00;3.35;;;2.30;99.90;;;;;;5093480;28;20237;-61
2021/12/12 04:12:31;;;;;;;4.87;2.90;;;2.40;99.90;;;;;;5093643;28;20180;-61
2021/12/12 04:14:57;;;;;;;3.90;2.60;;;2.40;99.90;;;;;;5093451;28;20736;-61
2021/12/12 04:17:28;;;;;;;7.80;2.70;;;2.40;99.90;;;;;;5093226;28;20187;-61
2021/12/12 04:19:56;;;;;;;5.73;2.57;;;2.40;99.90;;;;;;5092018;28;20653;-62
2021/12/12 04:22:22;;;;;;;5.07;2.80;;;2.40;99.90;;;;;;5093440;28;20193;-62
2021/12/12 04:24:55;;;;;;;5.45;2.17;;;2.50;99.90;;;;;;5091891;28;20263;-62
2021/12/12 04:27:22;;;;;;;6.70;2.38;;;2.50;99.90;;;;;;5092962;28;20195;-62
2021/12/12 04:29:51;;;;;;;6.67;2.53;;;2.50;99.90;;;;;;5092942;28;20642;-62
2021/12/12 04:32:26;;;;;;;8.13;2.80;;;2.50;99.90;;;;;;5093146;28;20191;-62
2021/12/12 04:35:01;;;;;;;7.07;3.00;;;2.50;99.90;;;;;;5092905;28;20190;-62
2021/12/12 04:37:28;;;;;;;9.53;3.13;;;2.50;99.90;;;;;;5092551;28;20196;-62
2021/12/12 04:39:57;;;;;;;6.77;2.60;;;2.50;99.90;;;;;;5092886;28;20184;-62
2021/12/12 04:42:36;;;;;;;7.47;3.27;;;2.50;99.90;;;;;;5091906;28;20180;-62
2021/12/12 04:45:08;;;;;;;5.90;2.60;;;2.60;99.90;;;;;;5092665;28;20597;-62
2021/12/12 04:50:36;;;;;;;10.70;2.83;;;2.60;99.90;;;;;;5092359;28;20214;-62
2021/12/12 04:53:26;;;;;;;4.07;2.20;;;2.60;99.90;;;;;;5093037;28;20543;-62
2021/12/12 04:56:01;;;;;;;2.47;2.28;;;2.60;99.90;;;;;;5092156;28;20212;-62
2021/12/12 04:58:38;;;;;;;3.17;2.07;;;2.50;99.90;;;;;;5092861;28;20180;-62
2021/12/12 05:01:27;;;;;;;3.13;2.00;;;2.40;99.90;;;;;;5092345;28;20180;-62
2021/12/12 05:03:59;;;;;;;3.10;2.10;;;2.40;99.90;;;;;;5092124;28;20192;-62
2021/12/12 05:06:45;;;;;;;4.53;2.40;;;2.40;99.90;;;;;;5091893;28;20176;-62
2021/12/12 05:09:32;;;;;;;4.80;2.30;;;2.40;99.90;;;;;;5092793;28;20183;-62
2021/12/12 05:12:09;;;;;;;6.27;2.30;;;2.40;99.90;;;;;;5092339;28;20219;-61
2021/12/12 05:14:39;;;;;;;3.23;2.30;;;2.40;99.90;;;;;;5100033;28;20184;-61
2021/12/12 05:17:28;;;;;;;5.13;2.43;;;2.40;99.90;;;;;;5091621;28;20183;-62
2021/12/12 05:19:59;;;;;;;6.15;2.25;;;2.40;99.90;;;;;;5092220;28;20226;-61
2021/12/12 05:23:02;;;;;;;4.07;2.20;;;2.40;99.90;;;;;;5092397;28;20186;-61
2021/12/12 05:26:08;;;;;;;3.40;2.07;;;2.40;99.90;;;;;;5029119;28;20186;-61
2021/12/12 05:28:49;;;;;;;5.78;1.98;;;2.40;99.90;;;;;;5091506;28;20230;-61
2021/12/12 05:31:18;;;;;;;2.93;2.00;;;2.40;99.90;;;;;;5091781;28;20204;-61
2021/12/12 05:33:45;;;;;;;4.63;2.00;;;2.40;99.90;;;;;;5092301;28;20230;-61
2021/12/12 05:36:12;;;;;;;2.85;2.00;;;2.40;99.90;;;;;;5091754;28;20263;-61
2021/12/12 05:38:39;;;;;;;3.80;2.53;;;2.40;99.90;;;;;;5091757;28;20183;-61
2021/12/12 05:41:06;;;;;;;3.43;1.90;;;2.40;99.90;;;;;;5091822;28;20176;-61
2021/12/12 05:43:35;;;;;;;3.63;2.67;;;2.40;99.90;;;;;;5091864;28;20182;-61
2021/12/12 05:46:01;;;;;;;2.87;2.20;;;2.30;99.90;;;;;;5091840;28;20183;-61
2021/12/12 05:48:28;;;;;;;3.07;2.07;;;2.30;99.90;;;;;;5091780;28;20187;-61
2021/12/12 05:50:55;;;;;;;3.03;2.20;;;2.30;99.90;;;;;;5091493;28;20196;-61
2021/12/12 05:53:21;;;;;;;3.63;2.80;;;2.20;99.90;;;;;;5091781;28;20261;-62
2021/12/12 05:55:49;;;;;;;5.75;3.17;;;2.20;99.90;;;;;;5091744;28;20222;-61
2021/12/12 05:58:17;;;;;;;9.07;4.20;;;2.20;99.90;;;;;;5091736;28;20204;-61
2021/12/12 06:01:12;;;;;;;9.95;4.68;;;2.20;99.90;;;;;;5089488;28;20286;-61
2021/12/12 06:03:40;;;;;;;5.77;4.33;;;2.10;99.90;;;;;;5087274;28;20188;-61
2021/12/12 06:06:10;;;;;;;6.50;3.80;;;2.10;99.90;;;;;;5091847;28;20184;-61
2021/12/12 06:08:37;;;;;;;5.88;3.42;;;2.10;99.90;;;;;;5091425;28;20187;-61
2021/12/12 06:11:04;;;;;;;6.72;4.78;;;2.10;99.90;;;;;;5091541;28;20721;-61
2021/12/12 06:13:31;;;;;;;4.93;3.90;;;2.00;99.90;;;;;;5090541;28;20200;-61
2021/12/12 06:15:58;;;;;;;10.60;4.32;;;2.00;99.90;;;;;;5091632;28;20179;-61
2021/12/12 06:18:25;;;;;;;6.47;4.10;;;1.90;99.90;;;;;;5091735;28;20237;-61
2021/12/12 06:20:52;;;;;;;8.63;4.27;;;1.90;99.90;;;;;;5101509;28;20198;-61
2021/12/12 06:23:18;;;;;;;8.23;3.85;;;1.80;99.90;;;;;;5071462;28;20219;-61
2021/12/12 06:25:45;;;;;;;7.13;3.90;;;1.80;99.90;;;;;;5072776;28;20574;-62
2021/12/12 06:28:29;;;;;;;8.73;3.78;;;1.70;99.90;;;;;;5093562;28;20803;-61
2021/12/12 06:30:56;;;;;;;5.38;3.75;;;1.70;99.90;;;;;;5095587;28;20199;-62
2021/12/12 06:33:22;;;;;;;5.75;3.80;;;1.70;99.90;;;;;;5093986;28;20225;-62
2021/12/12 06:35:49;;;;;;;5.77;3.87;;;1.70;99.90;;;;;;5095418;28;20189;-63
2021/12/12 06:38:17;;;;;;;5.67;3.87;;;1.60;99.90;;;;;;5095337;28;20176;-62
2021/12/12 06:40:43;;;;;;;9.80;4.20;;;1.70;99.90;;;;;;5093976;28;20229;-62
2021/12/12 06:43:12;;;;;;;8.80;4.57;;;1.60;99.90;;;;;;5093508;28;20188;-62
2021/12/12 06:45:38;;;;;;;6.07;4.20;;;1.50;99.90;;;;;;5095277;28;20259;-62
2021/12/12 06:48:06;;;;;;;8.47;4.80;;;1.50;99.90;;;;;;5095264;28;20266;-62
2021/12/12 06:50:33;;;;;;;8.77;4.50;;;1.50;99.90;;;;;;5094833;28;20210;-62
2021/12/12 06:53:00;;;;;;;6.77;4.47;;;1.50;99.90;;;;;;5095226;28;20172;-62
2021/12/12 06:55:25;;;;;;;7.17;4.13;;;1.50;99.90;;;;;;5094912;28;20180;-62
2021/12/12 06:57:51;;;;;;;6.30;4.18;;;1.40;99.90;;;;;;5095275;28;20188;-62
2021/12/12 07:00:21;;;;;;;5.37;3.87;;;1.40;99.90;;;;;;5095031;28;20176;-62
2021/12/12 07:02:48;;;;;;;6.03;4.10;;;1.40;99.90;;;;;;5095210;28;20210;-62
2021/12/12 07:05:18;;;;;;;6.50;3.83;;;1.40;99.90;;;;;;5093799;28;20536;-62
2021/12/12 07:07:45;;;;;;;7.93;3.47;;;1.40;99.90;;;;;;5094950;28;20176;-62
2021/12/12 07:10:13;;;;;;;7.23;4.00;;;1.40;99.90;;;;;;5094922;28;20589;-62
2021/12/12 07:12:40;;;;;;;8.67;6.33;;;1.40;99.90;;;;;;5094508;28;20229;-62
2021/12/12 07:15:09;;;;;;;7.73;5.50;;;1.40;99.90;;;;;;5094885;28;20186;-62
2021/12/12 07:17:36;;;;;;;10.67;5.47;;;1.40;99.90;;;;;;5083089;28;20233;-62
2021/12/12 07:20:04;;;;;;;5.83;4.00;;;1.30;99.90;;;;;;5078711;28;20203;-62
2021/12/12 07:22:30;;;;;;;5.83;3.43;;;1.30;99.90;;;;;;5093909;28;20180;-62
2021/12/12 07:25:00;;;;;;;3.87;3.00;;;1.30;99.90;;;;;;5092708;28;20698;-63
2021/12/12 07:27:25;;;;;;;4.53;2.97;;;1.30;99.90;;;;;;5094284;28;20187;-62
2021/12/12 07:29:54;;;;;;;6.20;3.27;;;1.30;99.90;;;;;;5097918;28;20172;-63
2021/12/12 07:32:20;;;;;;;7.90;4.33;;;1.30;99.90;;;;;;5113194;28;20543;-64
2021/12/12 07:34:45;;;;;;;13.93;6.03;;;1.30;99.90;;;;;;5096159;28;20180;-62
2021/12/12 07:37:11;;;;;;;20.60;8.07;;;1.30;99.90;;;;;;5075202;28;20185;-59
2021/12/12 07:39:43;;;;;;;15.80;8.82;;;1.40;99.90;;;;;;5092953;28;20172;-60
2021/12/12 07:42:10;;;;;;;17.53;6.80;;;1.40;99.90;;;;;;5094029;28;20314;-59
2021/12/12 07:44:38;;;;;;;13.73;6.60;;;1.40;99.90;;;;;;5093971;28;20678;-59
2021/12/12 07:47:05;;;;;;;14.27;5.97;;;1.50;99.90;;;;;;5094204;28;20164;-58
2021/12/12 07:49:36;;;;;;;11.48;5.47;;;1.50;99.90;;;;;;5093863;28;20631;-60
2021/12/12 07:52:07;;;;;;;13.80;6.28;;;1.50;99.90;;;;;;5094113;28;20207;-62
2021/12/12 07:54:34;;;;;;;21.47;11.57;;;1.60;99.90;;;;;;5093661;28;20176;-59
2021/12/12 07:57:00;;;;;;;32.17;16.43;;;1.60;99.90;;;;;;5092143;28;20235;-60
2021/12/12 07:59:26;;;;;;;35.50;18.00;;;1.60;99.90;;;;;;5093187;28;20604;-61
2021/12/12 08:01:53;;;;;;;33.47;16.50;;;1.70;99.90;;;;;;5093999;28;20176;-61
2021/12/12 08:04:22;;;;;;;19.60;10.35;;;1.80;99.90;;;;;;5093390;28;20200;-60
2021/12/12 08:06:49;;;;;;;15.25;7.93;;;1.90;99.90;;;;;;5093513;28;20208;-60
2021/12/12 08:09:15;;;;;;;9.63;5.47;;;2.10;99.90;;;;;;5092929;28;20276;-58
2021/12/12 08:11:42;;;;;;;7.45;4.43;;;2.20;99.90;;;;;;5093629;28;20640;-59
2021/12/12 08:14:12;;;;;;;10.43;5.15;;;2.40;99.90;;;;;;5093191;28;20195;-59
2021/12/12 08:16:38;;;;;;;9.52;5.32;;;2.50;99.90;;;;;;5093489;28;20219;-60
2021/12/12 08:19:04;;;;;;;9.35;5.50;;;2.50;99.90;;;;;;5092666;28;20183;-60
2021/12/12 08:21:33;;;;;;;9.00;5.65;;;2.60;99.90;;;;;;5093354;28;20176;-62
2021/12/12 08:24:07;;;;;;;10.63;5.80;;;2.70;99.90;;;;;;5093183;28;20180;-62
2021/12/12 08:26:35;;;;;;;15.75;6.47;;;2.70;99.90;;;;;;5082085;28;20196;-58
2021/12/12 08:29:04;;;;;;;17.13;8.97;;;2.80;99.90;;;;;;5092131;28;20188;-58
2021/12/12 08:31:29;;;;;;;18.70;10.03;;;2.90;99.90;;;;;;5092977;28;20224;-58
2021/12/12 08:33:55;;;;;;;22.90;10.75;;;3.00;99.90;;;;;;5092870;28;20225;-58
2021/12/12 08:36:21;;;;;;;17.63;9.88;;;3.00;99.90;;;;;;5092941;28;20188;-61
2021/12/12 08:38:47;;;;;;;21.65;10.70;;;3.10;99.90;;;;;;5094513;28;20176;-59
2021/12/12 08:41:12;;;;;;;19.80;10.25;;;3.10;99.90;;;;;;5101350;28;20180;-59
2021/12/12 08:43:39;;;;;;;24.53;10.80;;;3.20;99.90;;;;;;5106279;28;20191;-58
2021/12/12 08:46:10;;;;;;;22.67;9.57;;;3.30;99.90;;;;;;5092994;28;20180;-58
2021/12/12 08:48:43;;;;;;;20.65;9.73;;;3.30;99.90;;;;;;5092230;28;20184;-59
2021/12/12 08:51:17;;;;;;;23.80;11.13;;;3.40;99.90;;;;;;5092176;28;20220;-59
2021/12/12 08:53:46;;;;;;;22.40;10.52;;;3.40;99.90;;;;;;5092645;28;20586;-59
2021/12/12 08:56:19;;;;;;;19.42;10.32;;;3.50;99.90;;;;;;5092702;28;20307;-59
2021/12/12 08:58:46;;;;;;;20.70;10.18;;;3.60;99.90;;;;;;5092290;28;20658;-59
2021/12/12 09:01:15;;;;;;;18.92;9.82;;;3.70;99.90;;;;;;5092095;28;20199;-59
2021/12/12 09:03:43;;;;;;;17.60;10.63;;;3.70;99.90;;;;;;5092394;28;20225;-59
2021/12/12 09:06:13;;;;;;;29.52;15.52;;;3.80;99.90;;;;;;5091207;28;20233;-59
2021/12/12 09:08:53;;;;;;;15.82;8.57;;;3.80;99.90;;;;;;5085064;28;20270;-59
2021/12/12 09:11:31;;;;;;;13.73;6.97;;;3.90;99.90;;;;;;5092532;28;20211;-60
2021/12/12 09:14:06;;;;;;;12.48;7.55;;;4.00;99.90;;;;;;5075621;28;20188;-59
2021/12/12 09:16:41;;;;;;;15.95;8.10;;;4.10;99.90;;;;;;5091221;28;20183;-59
2021/12/12 09:19:09;;;;;;;21.45;12.45;;;4.10;99.90;;;;;;5092268;28;20175;-59
2021/12/12 09:21:50;;;;;;;23.77;13.02;;;4.20;99.90;;;;;;5092003;28;20180;-59
2021/12/12 09:24:51;;;;;;;20.13;10.35;;;4.20;99.90;;;;;;5092018;28;20184;-59
2021/12/12 09:27:25;;;;;;;19.60;10.02;;;4.30;99.90;;;;;;5091680;28;20222;-60
2021/12/12 09:30:02;;;;;;;20.52;11.30;;;4.40;99.90;;;;;;5092153;28;20188;-59
2021/12/12 09:32:35;;;;;;;43.33;22.23;;;4.40;99.90;;;;;;5091597;28;20184;-60
2021/12/12 09:35:11;;;;;;;39.03;23.60;;;4.50;99.90;;;;;;5092079;28;20181;-61
2021/12/12 09:37:47;;;;;;;23.45;14.05;;;4.60;99.90;;;;;;5090998;28;20205;-61
2021/12/12 09:41:03;;;;;;;17.27;10.73;;;4.60;99.90;;;;;;5089698;28;20191;-60
2021/12/12 09:43:55;;;;;;;13.10;8.65;;;4.70;99.90;;;;;;5086555;28;20714;-61
2021/12/12 09:46:44;;;;;;;24.90;14.23;;;4.90;99.90;;;;;;5091850;28;20627;-61
2021/12/12 09:53:10;;;;;;;15.90;9.82;;;4.90;99.90;;;;;;5089117;28;20217;-61
2021/12/12 09:55:47;;;;;;;10.25;5.85;;;4.90;99.90;;;;;;5068082;28;20270;-61
2021/12/12 09:58:54;;;;;;;6.78;3.03;;;4.90;99.90;;;;;;5091894;28;20722;-61
2021/12/12 10:01:30;;;;;;;8.30;4.03;;;4.90;99.90;;;;;;5050600;28;20191;-61
2021/12/12 10:04:27;;;;;;;6.97;4.03;;;4.90;99.90;;;;;;5091270;28;20216;-60
2021/12/12 10:07:09;;;;;;;3.83;2.97;;;4.90;99.90;;;;;;5071744;28;20184;-61
2021/12/12 10:09:52;;;;;;;5.93;4.18;;;4.90;99.90;;;;;;5084982;28;20195;-60
2021/12/12 10:12:22;;;;;;;5.00;3.60;;;5.00;99.90;;;;;;5091257;28;20303;-60
2021/12/12 10:14:53;;;;;;;3.92;2.72;;;5.00;99.90;;;;;;5091274;28;20712;-59
2021/12/12 10:17:37;;;;;;;4.10;2.70;;;5.10;99.90;;;;;;5091658;28;20674;-60
2021/12/12 10:20:31;;;;;;;3.75;3.20;;;5.20;99.90;;;;;;5091132;28;20164;-60
2021/12/12 10:23:15;;;;;;;4.03;2.80;;;5.20;99.90;;;;;;5071905;28;20263;-60
2021/12/12 10:26:03;;;;;;;4.07;2.50;;;5.30;99.90;;;;;;5091563;28;20192;-60
2021/12/12 10:28:37;;;;;;;3.50;2.10;;;5.30;99.90;;;;;;5091328;28;20263;-61
2021/12/12 10:31:24;;;;;;;3.92;2.63;;;5.40;99.90;;;;;;5091366;28;20214;-61
2021/12/12 10:34:03;;;;;;;2.97;2.45;;;5.40;99.90;;;;;;5091665;28;20297;-61
2021/12/12 10:36:39;;;;;;;3.97;2.50;;;5.50;99.90;;;;;;5091078;28;20221;-60
2021/12/12 10:39:12;;;;;;;4.53;2.85;;;5.50;99.90;;;;;;5091112;28;20226;-60
2021/12/12 10:41:42;;;;;;;6.10;3.42;;;5.60;99.90;;;;;;5087969;28;20176;-61
2021/12/12 10:44:25;;;;;;;5.57;2.78;;;5.70;99.90;;;;;;5091494;28;20195;-60
2021/12/12 10:46:54;;;;;;;3.65;2.40;;;5.70;99.90;;;;;;5096665;28;20661;-60
2021/12/12 10:49:36;;;;;;;4.85;2.70;;;5.80;99.90;;;;;;5111846;28;20178;-60
2021/12/12 10:52:09;;;;;;;6.15;3.35;;;5.80;99.90;;;;;;5098027;28;20208;-60
2021/12/12 10:54:42;;;;;;;4.03;2.63;;;5.90;99.90;;;;;;5091394;28;20207;-61
2021/12/12 10:57:14;;;;;;;3.15;2.20;;;5.90;99.90;;;;;;5091277;28;20582;-61
2021/12/12 10:59:42;;;;;;;5.60;2.40;;;6.00;99.90;;;;;;5071187;28;20192;-61
2021/12/12 11:02:12;;;;;;;3.47;1.90;;;6.10;99.90;;;;;;5071110;28;20180;-61
2021/12/12 11:04:40;;;;;;;1.60;1.50;;;6.20;99.90;;;;;;5071176;28;20180;-61
2021/12/12 11:07:16;;;;;;;4.15;2.58;;;6.20;99.90;;;;;;5071301;28;20192;-60
2021/12/12 11:09:44;;;;;;;4.57;2.42;;;6.20;99.90;;;;;;5092463;28;20168;-60
2021/12/12 11:12:33;;;;;;;4.72;3.20;;;6.20;99.90;;;;;;5094703;28;20294;-60
2021/12/12 11:15:12;;;;;;;7.13;3.05;;;6.30;99.90;;;;;;5094965;28;20180;-60
2021/12/12 11:17:47;;;;;;;3.75;2.80;;;6.30;99.90;;;;;;5074593;28;20210;-61
2021/12/12 11:20:22;;;;;;;3.28;2.72;;;6.50;99.90;;;;;;5088054;28;20184;-61
2021/12/12 11:22:56;;;;;;;3.90;2.67;;;6.50;99.90;;;;;;5094366;28;20279;-61
2021/12/12 11:25:42;;;;;;;7.43;3.47;;;6.50;99.90;;;;;;5088628;28;20262;-61
2021/12/12 11:28:20;;;;;;;26.83;14.13;;;6.60;99.90;;;;;;5088504;28;20294;-59
2021/12/12 11:31:20;;;;;;;9.07;5.40;;;6.90;99.90;;;;;;5091780;28;20218;-59
2021/12/12 11:33:49;;;;;;;5.70;4.20;;;7.60;99.90;;;;;;5047506;28;20267;-58
2021/12/12 11:36:22;;;;;;;3.70;3.03;;;8.10;99.90;;;;;;5072748;28;20200;-61
2021/12/12 11:38:50;;;;;;;5.00;2.72;;;8.40;99.90;;;;;;5074187;28;20169;-61
2021/12/12 11:41:18;;;;;;;4.32;3.10;;;8.40;99.90;;;;;;5073996;28;20188;-61
2021/12/12 11:44:08;;;;;;;4.47;2.72;;;8.30;99.90;;;;;;5083164;28;20229;-61
2021/12/12 11:46:40;;;;;;;4.80;2.78;;;8.10;99.90;;;;;;5094083;28;20188;-61
2021/12/12 11:49:16;;;;;;;4.35;3.00;;;7.90;99.90;;;;;;5090941;28;20233;-61
2021/12/12 11:51:54;;;;;;;4.45;2.60;;;7.60;99.90;;;;;;5085379;28;20310;-60
2021/12/12 11:54:49;;;;;;;7.30;2.20;;;7.30;99.90;;;;;;5093846;28;20232;-61
2021/12/12 11:57:25;;;;;;;3.50;1.77;;;6.90;99.90;;;;;;5067956;28;20220;-61
2021/12/12 12:00:19;;;;;;;3.85;2.10;;;6.80;99.90;;;;;;5073937;28;20658;-60
2021/12/12 12:02:56;;;;;;;4.63;2.13;;;6.60;99.90;;;;;;5067922;28;20207;-60
2021/12/12 12:05:36;;;;;;;4.95;2.03;;;6.50;99.90;;;;;;5093837;28;20168;-60
2021/12/12 12:08:21;;;;;;;3.72;1.80;;;6.40;99.90;;;;;;5092778;28;20192;-60
2021/12/12 12:11:04;;;;;;;5.25;2.83;;;6.40;99.90;;;;;;5093659;28;20211;-60
2021/12/12 12:13:51;;;;;;;3.92;2.30;;;6.40;99.90;;;;;;5093867;28;20180;-61
2021/12/12 12:16:20;;;;;;;3.63;2.03;;;6.40;99.90;;;;;;5092602;28;20222;-60
2021/12/12 12:18:50;;;;;;;3.67;2.25;;;6.40;99.90;;;;;;5089041;28;20177;-60
2021/12/12 12:21:25;;;;;;;3.65;2.33;;;6.30;99.90;;;;;;5089727;28;20180;-60
2021/12/12 12:27:07;;;;;;;3.47;2.50;;;6.20;99.90;;;;;;5102130;28;20650;-60
2021/12/12 12:29:57;;;;;;;3.72;2.65;;;6.10;99.90;;;;;;5092600;28;20251;-60
2021/12/12 12:33:00;;;;;;;4.47;2.63;;;6.10;99.90;;;;;;5089833;28;20218;-60
2021/12/12 12:36:03;;;;;;;4.43;2.92;;;6.20;99.90;;;;;;5092855;28;20186;-61
2021/12/12 12:38:47;;;;;;;4.25;3.20;;;6.30;99.90;;;;;;5093241;28;20180;-62
2021/12/12 12:41:37;;;;;;;4.38;2.00;;;6.40;99.90;;;;;;5085292;28;20180;-60
2021/12/12 12:44:47;;;;;;;7.15;3.30;;;6.40;99.90;;;;;;5092706;28;20179;-60
2021/12/12 12:47:38;;;;;;;24.98;15.73;;;6.50;99.90;;;;;;5083397;28;20248;-61
2021/12/12 12:50:42;;;;;;;5.28;2.40;;;6.30;99.90;;;;;;5092735;28;20555;-61
2021/12/12 12:53:46;;;;;;;3.20;2.30;;;6.30;99.90;;;;;;5092634;28;20176;-61
2021/12/12 12:56:32;;;;;;;4.65;2.42;;;6.20;99.90;;;;;;5030265;28;20619;-61
2021/12/12 12:59:45;;;;;;;9.57;4.18;;;6.30;99.90;;;;;;5013319;28;20178;-62
2021/12/12 13:02:34;;;;;;;18.65;7.63;;;6.30;99.90;;;;;;5035514;28;20541;-62
2021/12/12 13:05:06;;;;;;;5.13;2.60;;;6.40;99.90;;;;;;5088487;28;20258;-62
2021/12/12 13:07:41;;;;;;;3.30;2.40;;;6.30;99.90;;;;;;5082771;28;21035;-61
2021/12/12 13:10:24;;;;;;;4.07;2.42;;;6.30;99.90;;;;;;5092381;28;20202;-61
2021/12/12 13:13:11;;;;;;;2.85;2.17;;;6.30;99.90;;;;;;5092431;28;20184;-61
2021/12/12 13:15:39;;;;;;;3.28;2.42;;;6.30;99.90;;;;;;5092412;28;20185;-61
2021/12/12 13:18:36;;;;;;;3.75;2.30;;;6.40;99.90;;;;;;5092390;28;20255;-62
2021/12/12 13:21:03;;;;;;;3.38;2.40;;;6.40;99.90;;;;;;5092378;28;20176;-63
2021/12/12 13:23:53;;;;;;;4.72;2.60;;;6.40;99.90;;;;;;5091959;28;20168;-62
2021/12/12 13:26:34;;;;;;;4.18;2.75;;;6.50;99.90;;;;;;5092261;28;20647;-63
2021/12/12 13:29:15;;;;;;;3.60;2.30;;;6.50;99.90;;;;;;5092090;28;20167;-63
2021/12/12 13:32:19;;;;;;;5.72;3.08;;;6.40;99.90;;;;;;5093370;28;20294;-61
2021/12/12 13:34:56;;;;;;;5.93;2.60;;;6.50;99.90;;;;;;5051866;28;20195;-61
2021/12/12 13:37:58;;;;;;;4.40;2.25;;;6.50;99.90;;;;;;5090749;28;20630;-62
2021/12/12 13:40:43;;;;;;;3.88;2.45;;;6.50;99.90;;;;;;5071967;28;20180;-62
2021/12/12 13:43:18;;;;;;;4.50;2.90;;;6.50;99.90;;;;;;5072033;28;20176;-62
2021/12/12 13:46:14;;;;;;;5.97;3.33;;;6.40;99.90;;;;;;5073374;28;20183;-61
2021/12/12 13:49:08;;;;;;;6.63;3.40;;;6.40;99.90;;;;;;5089030;28;20548;-61
2021/12/12 13:51:34;;;;;;;6.15;3.40;;;6.40;99.90;;;;;;5091314;28;20212;-61